sensor_id;sensor_type;location;lat;lon;timestamp;P1;durP1;ratioP1;P2;durP2;ratioP2
30068;SDS011;16894;49.456;10.644;2022-12-28T00:03:33;20.50;;;12.35;;
30068;SDS011;16894;49.456;10.644;2022-12-28T00:05:59;23.45;;;10.20;;
30068;SDS011;16894;49.456;10.644;2022-12-28T00:08:25;23.73;;;12.00;;
30068;SDS011;16894;49.456;10.644;2022-12-28T00:10:50;26.02;;;10.40;;
30068;SDS011;16894;49.456;10.644;2022-12-28T00:13:16;20.10;;;11.20;;
30068;SDS011;16894;49.456;10.644;2022-12-28T00:15:42;25.23;;;13.40;;
30068;SDS011;16894;49.456;10.644;2022-12-28T00:18:07;21.50;;;12.77;;
30068;SDS011;16894;49.456;10.644;2022-12-28T00:20:33;16.87;;;9.73;;
30068;SDS011;16894;49.456;10.644;2022-12-28T00:22:58;16.37;;;10.00;;
30068;SDS011;16894;49.456;10.644;2022-12-28T00:25:28;17.65;;;9.50;;
30068;SDS011;16894;49.456;10.644;2022-12-28T00:27:53;24.00;;;11.37;;
30068;SDS011;16894;49.456;10.644;2022-12-28T00:30:19;29.93;;;11.10;;
30068;SDS011;16894;49.456;10.644;2022-12-28T00:32:44;23.20;;;10.67;;
30068;SDS011;16894;49.456;10.644;2022-12-28T00:35:10;44.20;;;15.00;;
30068;SDS011;16894;49.456;10.644;2022-12-28T00:37:36;75.60;;;25.35;;
30068;SDS011;16894;49.456;10.644;2022-12-28T00:40:01;40.38;;;16.23;;
30068;SDS011;16894;49.456;10.644;2022-12-28T00:42:27;37.40;;;15.40;;
30068;SDS011;16894;49.456;10.644;2022-12-28T00:44:52;42.23;;;14.07;;
30068;SDS011;16894;49.456;10.644;2022-12-28T00:47:18;23.90;;;12.07;;
30068;SDS011;16894;49.456;10.644;2022-12-28T00:49:43;25.55;;;11.70;;
30068;SDS011;16894;49.456;10.644;2022-12-28T00:52:09;23.75;;;12.57;;
30068;SDS011;16894;49.456;10.644;2022-12-28T00:54:35;29.43;;;11.77;;
30068;SDS011;16894;49.456;10.644;2022-12-28T00:57:00;22.73;;;13.70;;
30068;SDS011;16894;49.456;10.644;2022-12-28T00:59:26;27.15;;;12.75;;
30068;SDS011;16894;49.456;10.644;2022-12-28T01:01:51;22.88;;;13.00;;
30068;SDS011;16894;49.456;10.644;2022-12-28T01:04:17;25.63;;;12.95;;
30068;SDS011;16894;49.456;10.644;2022-12-28T01:06:43;22.83;;;13.95;;
30068;SDS011;16894;49.456;10.644;2022-12-28T01:09:08;25.27;;;13.93;;
30068;SDS011;16894;49.456;10.644;2022-12-28T01:11:34;25.63;;;14.17;;
30068;SDS011;16894;49.456;10.644;2022-12-28T01:14:00;24.00;;;12.63;;
30068;SDS011;16894;49.456;10.644;2022-12-28T01:16:28;23.50;;;11.48;;
30068;SDS011;16894;49.456;10.644;2022-12-28T01:18:56;21.08;;;11.27;;
30068;SDS011;16894;49.456;10.644;2022-12-28T01:21:24;16.23;;;11.13;;
30068;SDS011;16894;49.456;10.644;2022-12-28T01:23:55;20.08;;;10.65;;
30068;SDS011;16894;49.456;10.644;2022-12-28T01:26:22;26.30;;;12.75;;
30068;SDS011;16894;49.456;10.644;2022-12-28T01:31:15;32.65;;;14.48;;
30068;SDS011;16894;49.456;10.644;2022-12-28T01:33:42;31.17;;;13.63;;
30068;SDS011;16894;49.456;10.644;2022-12-28T01:38:38;21.58;;;10.75;;
30068;SDS011;16894;49.456;10.644;2022-12-28T01:41:12;29.40;;;14.15;;
30068;SDS011;16894;49.456;10.644;2022-12-28T01:43:43;33.05;;;16.23;;
30068;SDS011;16894;49.456;10.644;2022-12-28T01:46:17;21.10;;;11.73;;
30068;SDS011;16894;49.456;10.644;2022-12-28T01:48:48;18.25;;;10.32;;
30068;SDS011;16894;49.456;10.644;2022-12-28T01:51:19;27.00;;;11.70;;
30068;SDS011;16894;49.456;10.644;2022-12-28T01:53:46;30.42;;;11.82;;
30068;SDS011;16894;49.456;10.644;2022-12-28T01:56:14;24.50;;;12.52;;
30068;SDS011;16894;49.456;10.644;2022-12-28T01:58:39;25.98;;;12.50;;
30068;SDS011;16894;49.456;10.644;2022-12-28T02:01:05;26.13;;;13.05;;
30068;SDS011;16894;49.456;10.644;2022-12-28T02:03:31;20.58;;;11.48;;
30068;SDS011;16894;49.456;10.644;2022-12-28T02:06:01;31.10;;;13.93;;
30068;SDS011;16894;49.456;10.644;2022-12-28T02:08:36;36.58;;;16.17;;
30068;SDS011;16894;49.456;10.644;2022-12-28T02:11:16;31.05;;;14.70;;
30068;SDS011;16894;49.456;10.644;2022-12-28T02:13:43;25.35;;;12.80;;
30068;SDS011;16894;49.456;10.644;2022-12-28T02:16:11;36.13;;;13.52;;
30068;SDS011;16894;49.456;10.644;2022-12-28T02:18:38;23.80;;;12.88;;
30068;SDS011;16894;49.456;10.644;2022-12-28T02:32:45;20.63;;;11.93;;
30068;SDS011;16894;49.456;10.644;2022-12-28T02:40:57;23.55;;;12.77;;
30068;SDS011;16894;49.456;10.644;2022-12-28T02:43:27;31.98;;;14.38;;
30068;SDS011;16894;49.456;10.644;2022-12-28T02:45:53;28.35;;;14.38;;
30068;SDS011;16894;49.456;10.644;2022-12-28T02:48:44;24.25;;;13.63;;
30068;SDS011;16894;49.456;10.644;2022-12-28T02:57:54;29.33;;;13.13;;
30068;SDS011;16894;49.456;10.644;2022-12-28T03:00:23;29.50;;;15.20;;
30068;SDS011;16894;49.456;10.644;2022-12-28T03:11:15;26.70;;;15.02;;
30068;SDS011;16894;49.456;10.644;2022-12-28T03:16:34;25.58;;;14.05;;
30068;SDS011;16894;49.456;10.644;2022-12-28T03:19:24;27.05;;;13.80;;
30068;SDS011;16894;49.456;10.644;2022-12-28T03:22:12;30.35;;;21.20;;
30068;SDS011;16894;49.456;10.644;2022-12-28T03:24:58;25.40;;;13.55;;
30068;SDS011;16894;49.456;10.644;2022-12-28T03:27:46;19.42;;;12.57;;
30068;SDS011;16894;49.456;10.644;2022-12-28T03:30:32;26.90;;;12.80;;
30068;SDS011;16894;49.456;10.644;2022-12-28T03:33:19;28.33;;;14.20;;
30068;SDS011;16894;49.456;10.644;2022-12-28T03:38:18;22.95;;;13.23;;
30068;SDS011;16894;49.456;10.644;2022-12-28T03:40:51;25.75;;;13.65;;
30068;SDS011;16894;49.456;10.644;2022-12-28T03:43:26;26.45;;;15.93;;
30068;SDS011;16894;49.456;10.644;2022-12-28T03:46:09;22.13;;;13.32;;
30068;SDS011;16894;49.456;10.644;2022-12-28T03:48:37;26.95;;;13.45;;
30068;SDS011;16894;49.456;10.644;2022-12-28T03:51:04;28.58;;;13.90;;
30068;SDS011;16894;49.456;10.644;2022-12-28T03:53:40;21.60;;;13.65;;
30068;SDS011;16894;49.456;10.644;2022-12-28T04:01:00;16.58;;;9.93;;
30068;SDS011;16894;49.456;10.644;2022-12-28T04:03:26;16.42;;;9.90;;
30068;SDS011;16894;49.456;10.644;2022-12-28T04:05:52;13.70;;;10.48;;
30068;SDS011;16894;49.456;10.644;2022-12-28T04:08:19;24.80;;;11.02;;
30068;SDS011;16894;49.456;10.644;2022-12-28T04:10:45;25.83;;;14.77;;
30068;SDS011;16894;49.456;10.644;2022-12-28T04:13:10;31.57;;;14.23;;
30068;SDS011;16894;49.456;10.644;2022-12-28T04:15:36;21.50;;;14.27;;
30068;SDS011;16894;49.456;10.644;2022-12-28T04:18:02;21.10;;;14.53;;
30068;SDS011;16894;49.456;10.644;2022-12-28T04:20:27;19.42;;;12.73;;
30068;SDS011;16894;49.456;10.644;2022-12-28T04:22:53;21.38;;;13.60;;
30068;SDS011;16894;49.456;10.644;2022-12-28T04:25:19;22.43;;;15.03;;
30068;SDS011;16894;49.456;10.644;2022-12-28T04:27:44;25.35;;;18.67;;
30068;SDS011;16894;49.456;10.644;2022-12-28T04:30:10;25.83;;;18.80;;
30068;SDS011;16894;49.456;10.644;2022-12-28T04:32:36;26.23;;;19.15;;
30068;SDS011;16894;49.456;10.644;2022-12-28T04:35:02;27.02;;;20.33;;
30068;SDS011;16894;49.456;10.644;2022-12-28T04:37:28;21.00;;;17.00;;
30068;SDS011;16894;49.456;10.644;2022-12-28T04:39:53;21.47;;;19.50;;
30068;SDS011;16894;49.456;10.644;2022-12-28T04:42:19;21.83;;;17.67;;
30068;SDS011;16894;49.456;10.644;2022-12-28T04:44:45;19.13;;;16.23;;
30068;SDS011;16894;49.456;10.644;2022-12-28T04:47:10;19.80;;;17.67;;
30068;SDS011;16894;49.456;10.644;2022-12-28T04:49:37;21.98;;;19.50;;
30068;SDS011;16894;49.456;10.644;2022-12-28T04:52:03;22.38;;;18.95;;
30068;SDS011;16894;49.456;10.644;2022-12-28T04:54:28;21.27;;;17.43;;
30068;SDS011;16894;49.456;10.644;2022-12-28T04:56:54;24.17;;;20.90;;
30068;SDS011;16894;49.456;10.644;2022-12-28T04:59:19;24.10;;;18.90;;
30068;SDS011;16894;49.456;10.644;2022-12-28T05:01:45;20.83;;;15.00;;
30068;SDS011;16894;49.456;10.644;2022-12-28T05:04:11;24.80;;;20.50;;
30068;SDS011;16894;49.456;10.644;2022-12-28T05:06:36;20.27;;;18.20;;
30068;SDS011;16894;49.456;10.644;2022-12-28T05:09:02;22.70;;;17.87;;
30068;SDS011;16894;49.456;10.644;2022-12-28T05:11:28;22.25;;;19.02;;
30068;SDS011;16894;49.456;10.644;2022-12-28T05:13:54;23.98;;;20.15;;
30068;SDS011;16894;49.456;10.644;2022-12-28T05:16:21;24.02;;;20.45;;
30068;SDS011;16894;49.456;10.644;2022-12-28T05:18:48;22.05;;;19.83;;
30068;SDS011;16894;49.456;10.644;2022-12-28T05:21:15;26.85;;;23.30;;
30068;SDS011;16894;49.456;10.644;2022-12-28T05:23:43;22.85;;;20.25;;
30068;SDS011;16894;49.456;10.644;2022-12-28T05:26:13;24.75;;;22.30;;
30068;SDS011;16894;49.456;10.644;2022-12-28T05:28:41;24.25;;;21.90;;
30068;SDS011;16894;49.456;10.644;2022-12-28T05:31:08;24.08;;;21.60;;
30068;SDS011;16894;49.456;10.644;2022-12-28T05:33:36;26.30;;;23.77;;
30068;SDS011;16894;49.456;10.644;2022-12-28T05:36:05;25.27;;;22.85;;
30068;SDS011;16894;49.456;10.644;2022-12-28T05:38:40;26.10;;;23.58;;
30068;SDS011;16894;49.456;10.644;2022-12-28T05:43:42;26.52;;;23.88;;
30068;SDS011;16894;49.456;10.644;2022-12-28T05:46:09;34.90;;;24.98;;
30068;SDS011;16894;49.456;10.644;2022-12-28T05:48:38;27.45;;;24.10;;
30068;SDS011;16894;49.456;10.644;2022-12-28T05:51:06;27.42;;;24.67;;
30068;SDS011;16894;49.456;10.644;2022-12-28T05:53:34;29.45;;;22.60;;
30068;SDS011;16894;49.456;10.644;2022-12-28T05:56:01;27.50;;;24.42;;
30068;SDS011;16894;49.456;10.644;2022-12-28T05:58:31;27.17;;;22.80;;
30068;SDS011;16894;49.456;10.644;2022-12-28T06:01:04;24.52;;;22.17;;
30068;SDS011;16894;49.456;10.644;2022-12-28T06:03:40;28.55;;;25.90;;
30068;SDS011;16894;49.456;10.644;2022-12-28T06:06:15;27.45;;;24.58;;
30068;SDS011;16894;49.456;10.644;2022-12-28T06:08:42;28.58;;;25.85;;
30068;SDS011;16894;49.456;10.644;2022-12-28T06:11:10;29.80;;;25.08;;
30068;SDS011;16894;49.456;10.644;2022-12-28T06:13:38;24.77;;;21.77;;
30068;SDS011;16894;49.456;10.644;2022-12-28T06:16:08;25.65;;;23.15;;
30068;SDS011;16894;49.456;10.644;2022-12-28T06:18:44;26.75;;;22.17;;
30068;SDS011;16894;49.456;10.644;2022-12-28T06:21:12;32.03;;;26.70;;
30068;SDS011;16894;49.456;10.644;2022-12-28T06:23:40;29.38;;;26.38;;
30068;SDS011;16894;49.456;10.644;2022-12-28T06:26:07;27.85;;;25.02;;
30068;SDS011;16894;49.456;10.644;2022-12-28T06:28:38;27.98;;;25.20;;
30068;SDS011;16894;49.456;10.644;2022-12-28T06:31:47;32.72;;;27.85;;
30068;SDS011;16894;49.456;10.644;2022-12-28T06:33:55;26.63;;;23.25;;
30068;SDS011;16894;49.456;10.644;2022-12-28T06:36:23;27.05;;;24.65;;
30068;SDS011;16894;49.456;10.644;2022-12-28T06:39:01;28.55;;;25.65;;
30068;SDS011;16894;49.456;10.644;2022-12-28T06:41:29;23.58;;;21.17;;
30068;SDS011;16894;49.456;10.644;2022-12-28T06:43:55;25.38;;;22.42;;
30068;SDS011;16894;49.456;10.644;2022-12-28T06:46:22;22.65;;;20.48;;
30068;SDS011;16894;49.456;10.644;2022-12-28T06:48:50;21.73;;;19.30;;
30068;SDS011;16894;49.456;10.644;2022-12-28T06:51:17;23.80;;;19.20;;
30068;SDS011;16894;49.456;10.644;2022-12-28T06:53:45;27.38;;;18.67;;
30068;SDS011;16894;49.456;10.644;2022-12-28T06:56:12;23.48;;;16.15;;
30068;SDS011;16894;49.456;10.644;2022-12-28T06:58:39;19.10;;;16.55;;
30068;SDS011;16894;49.456;10.644;2022-12-28T07:01:10;22.10;;;18.52;;
30068;SDS011;16894;49.456;10.644;2022-12-28T07:03:42;23.27;;;20.00;;
30068;SDS011;16894;49.456;10.644;2022-12-28T07:06:11;27.27;;;23.67;;
30068;SDS011;16894;49.456;10.644;2022-12-28T07:08:39;19.60;;;17.60;;
30068;SDS011;16894;49.456;10.644;2022-12-28T07:11:07;20.13;;;17.75;;
30068;SDS011;16894;49.456;10.644;2022-12-28T07:13:45;21.35;;;17.92;;
30068;SDS011;16894;49.456;10.644;2022-12-28T07:16:12;20.02;;;17.90;;
30068;SDS011;16894;49.456;10.644;2022-12-28T07:18:40;53.28;;;20.15;;
30068;SDS011;16894;49.456;10.644;2022-12-28T07:21:28;53.13;;;23.13;;
30068;SDS011;16894;49.456;10.644;2022-12-28T07:23:54;25.55;;;16.63;;
30068;SDS011;16894;49.456;10.644;2022-12-28T07:26:24;23.10;;;16.85;;
30068;SDS011;16894;49.456;10.644;2022-12-28T07:28:56;22.92;;;16.98;;
30068;SDS011;16894;49.456;10.644;2022-12-28T07:31:24;23.23;;;19.75;;
30068;SDS011;16894;49.456;10.644;2022-12-28T07:33:51;20.98;;;18.25;;
30068;SDS011;16894;49.456;10.644;2022-12-28T07:36:19;22.58;;;16.30;;
30068;SDS011;16894;49.456;10.644;2022-12-28T07:38:46;18.75;;;16.77;;
30068;SDS011;16894;49.456;10.644;2022-12-28T07:41:13;27.95;;;17.58;;
30068;SDS011;16894;49.456;10.644;2022-12-28T07:43:47;21.50;;;16.55;;
30068;SDS011;16894;49.456;10.644;2022-12-28T07:48:43;23.90;;;17.15;;
30068;SDS011;16894;49.456;10.644;2022-12-28T07:51:14;27.52;;;16.33;;
30068;SDS011;16894;49.456;10.644;2022-12-28T07:53:42;19.20;;;15.32;;
30068;SDS011;16894;49.456;10.644;2022-12-28T07:56:09;22.23;;;15.88;;
30068;SDS011;16894;49.456;10.644;2022-12-28T08:01:11;22.70;;;13.52;;
30068;SDS011;16894;49.456;10.644;2022-12-28T08:03:39;20.33;;;15.68;;
30068;SDS011;16894;49.456;10.644;2022-12-28T08:06:09;20.58;;;15.25;;
30068;SDS011;16894;49.456;10.644;2022-12-28T08:08:35;22.85;;;14.35;;
30068;SDS011;16894;49.456;10.644;2022-12-28T08:11:06;24.42;;;16.45;;
30068;SDS011;16894;49.456;10.644;2022-12-28T08:13:35;26.33;;;15.27;;
30068;SDS011;16894;49.456;10.644;2022-12-28T08:16:03;23.73;;;15.05;;
30068;SDS011;16894;49.456;10.644;2022-12-28T08:18:30;26.30;;;15.77;;
30068;SDS011;16894;49.456;10.644;2022-12-28T08:23:29;26.45;;;12.45;;
30068;SDS011;16894;49.456;10.644;2022-12-28T08:28:21;21.42;;;12.45;;
30068;SDS011;16894;49.456;10.644;2022-12-28T08:30:49;18.23;;;12.33;;
30068;SDS011;16894;49.456;10.644;2022-12-28T08:33:14;18.05;;;13.32;;
30068;SDS011;16894;49.456;10.644;2022-12-28T08:35:40;17.70;;;12.13;;
30068;SDS011;16894;49.456;10.644;2022-12-28T08:38:06;20.10;;;13.50;;
30068;SDS011;16894;49.456;10.644;2022-12-28T08:40:31;22.60;;;14.17;;
30068;SDS011;16894;49.456;10.644;2022-12-28T08:42:57;22.73;;;13.93;;
30068;SDS011;16894;49.456;10.644;2022-12-28T08:45:23;18.73;;;12.50;;
30068;SDS011;16894;49.456;10.644;2022-12-28T08:50:15;19.80;;;12.02;;
30068;SDS011;16894;49.456;10.644;2022-12-28T08:52:41;20.23;;;14.90;;
30068;SDS011;16894;49.456;10.644;2022-12-28T08:55:06;16.47;;;12.57;;
30068;SDS011;16894;49.456;10.644;2022-12-28T08:57:32;20.02;;;13.07;;
30068;SDS011;16894;49.456;10.644;2022-12-28T08:59:58;21.50;;;13.80;;
30068;SDS011;16894;49.456;10.644;2022-12-28T09:02:23;18.60;;;12.97;;
30068;SDS011;16894;49.456;10.644;2022-12-28T09:04:49;21.03;;;16.23;;
30068;SDS011;16894;49.456;10.644;2022-12-28T09:07:14;23.37;;;14.63;;
30068;SDS011;16894;49.456;10.644;2022-12-28T09:09:40;29.23;;;16.03;;
30068;SDS011;16894;49.456;10.644;2022-12-28T09:12:06;24.83;;;16.53;;
30068;SDS011;16894;49.456;10.644;2022-12-28T09:14:31;19.30;;;13.03;;
30068;SDS011;16894;49.456;10.644;2022-12-28T09:16:57;23.63;;;13.55;;
30068;SDS011;16894;49.456;10.644;2022-12-28T09:19:23;18.10;;;13.63;;
30068;SDS011;16894;49.456;10.644;2022-12-28T09:21:49;20.63;;;14.67;;
30068;SDS011;16894;49.456;10.644;2022-12-28T09:24:17;18.70;;;14.10;;
30068;SDS011;16894;49.456;10.644;2022-12-28T09:26:43;15.80;;;11.35;;
30068;SDS011;16894;49.456;10.644;2022-12-28T09:29:10;19.60;;;12.57;;
30068;SDS011;16894;49.456;10.644;2022-12-28T09:31:37;18.80;;;12.55;;
30068;SDS011;16894;49.456;10.644;2022-12-28T09:34:05;16.02;;;12.65;;
30068;SDS011;16894;49.456;10.644;2022-12-28T09:36:39;18.65;;;12.07;;
30068;SDS011;16894;49.456;10.644;2022-12-28T09:39:14;17.90;;;12.27;;
30068;SDS011;16894;49.456;10.644;2022-12-28T09:44:24;24.42;;;21.13;;
30068;SDS011;16894;49.456;10.644;2022-12-28T09:47:20;25.45;;;15.30;;
30068;SDS011;16894;49.456;10.644;2022-12-28T09:49:59;21.48;;;13.02;;
30068;SDS011;16894;49.456;10.644;2022-12-28T09:52:58;31.38;;;28.05;;
30068;SDS011;16894;49.456;10.644;2022-12-28T09:56:19;24.85;;;17.70;;
30068;SDS011;16894;49.456;10.644;2022-12-28T09:58:59;20.83;;;15.82;;
30068;SDS011;16894;49.456;10.644;2022-12-28T10:01:26;20.92;;;14.13;;
30068;SDS011;16894;49.456;10.644;2022-12-28T10:03:52;24.50;;;15.50;;
30068;SDS011;16894;49.456;10.644;2022-12-28T10:06:21;21.48;;;14.27;;
30068;SDS011;16894;49.456;10.644;2022-12-28T10:08:51;20.42;;;14.20;;
30068;SDS011;16894;49.456;10.644;2022-12-28T10:11:19;21.67;;;13.38;;
30068;SDS011;16894;49.456;10.644;2022-12-28T10:13:57;16.17;;;12.63;;
30068;SDS011;16894;49.456;10.644;2022-12-28T10:18:52;18.80;;;12.68;;
30068;SDS011;16894;49.456;10.644;2022-12-28T10:21:18;19.98;;;13.32;;
30068;SDS011;16894;49.456;10.644;2022-12-28T10:23:50;18.30;;;11.50;;
30068;SDS011;16894;49.456;10.644;2022-12-28T10:26:18;19.90;;;11.68;;
30068;SDS011;16894;49.456;10.644;2022-12-28T10:28:52;22.08;;;11.85;;
30068;SDS011;16894;49.456;10.644;2022-12-28T10:31:31;18.90;;;12.02;;
30068;SDS011;16894;49.456;10.644;2022-12-28T10:33:58;16.35;;;11.85;;
30068;SDS011;16894;49.456;10.644;2022-12-28T10:36:25;18.60;;;13.15;;
30068;SDS011;16894;49.456;10.644;2022-12-28T10:38:55;15.27;;;12.02;;
30068;SDS011;16894;49.456;10.644;2022-12-28T10:41:22;19.58;;;12.30;;
30068;SDS011;16894;49.456;10.644;2022-12-28T10:44:00;20.48;;;11.70;;
30068;SDS011;16894;49.456;10.644;2022-12-28T10:46:39;20.02;;;13.05;;
30068;SDS011;16894;49.456;10.644;2022-12-28T10:51:41;17.38;;;8.88;;
30068;SDS011;16894;49.456;10.644;2022-12-28T10:54:41;12.15;;;8.15;;
30068;SDS011;16894;49.456;10.644;2022-12-28T10:57:17;19.17;;;8.57;;
30068;SDS011;16894;49.456;10.644;2022-12-28T11:02:22;14.77;;;8.18;;
30068;SDS011;16894;49.456;10.644;2022-12-28T11:04:57;13.93;;;9.57;;
30068;SDS011;16894;49.456;10.644;2022-12-28T11:07:28;14.98;;;8.00;;
30068;SDS011;16894;49.456;10.644;2022-12-28T11:10:15;14.07;;;7.05;;
30068;SDS011;16894;49.456;10.644;2022-12-28T11:12:42;16.88;;;8.50;;
30068;SDS011;16894;49.456;10.644;2022-12-28T11:15:12;14.00;;;8.13;;
30068;SDS011;16894;49.456;10.644;2022-12-28T11:17:39;11.77;;;9.20;;
30068;SDS011;16894;49.456;10.644;2022-12-28T11:20:06;12.27;;;8.55;;
30068;SDS011;16894;49.456;10.644;2022-12-28T11:22:35;12.52;;;9.95;;
30068;SDS011;16894;49.456;10.644;2022-12-28T11:25:01;10.07;;;9.18;;
30068;SDS011;16894;49.456;10.644;2022-12-28T11:27:29;10.65;;;8.82;;
30068;SDS011;16894;49.456;10.644;2022-12-28T11:29:55;12.53;;;9.83;;
30068;SDS011;16894;49.456;10.644;2022-12-28T11:32:23;11.27;;;8.50;;
30068;SDS011;16894;49.456;10.644;2022-12-28T11:34:51;12.18;;;8.23;;
30068;SDS011;16894;49.456;10.644;2022-12-28T11:37:19;7.80;;;6.65;;
30068;SDS011;16894;49.456;10.644;2022-12-28T11:39:48;11.77;;;6.77;;
30068;SDS011;16894;49.456;10.644;2022-12-28T11:45:46;10.60;;;7.72;;
30068;SDS011;16894;49.456;10.644;2022-12-28T11:56:10;11.80;;;6.57;;
30068;SDS011;16894;49.456;10.644;2022-12-28T12:01:07;12.30;;;6.22;;
30068;SDS011;16894;49.456;10.644;2022-12-28T12:11:56;13.57;;;9.65;;
30068;SDS011;16894;49.456;10.644;2022-12-28T12:14:37;8.30;;;7.10;;
30068;SDS011;16894;49.456;10.644;2022-12-28T12:17:10;13.07;;;7.95;;
30068;SDS011;16894;49.456;10.644;2022-12-28T12:20:02;9.55;;;7.63;;
30068;SDS011;16894;49.456;10.644;2022-12-28T12:22:33;8.77;;;6.95;;
30068;SDS011;16894;49.456;10.644;2022-12-28T12:27:57;7.97;;;5.75;;
30068;SDS011;16894;49.456;10.644;2022-12-28T12:30:27;7.82;;;5.90;;
30068;SDS011;16894;49.456;10.644;2022-12-28T12:35:45;11.05;;;5.45;;
30068;SDS011;16894;49.456;10.644;2022-12-28T12:41:11;13.48;;;6.45;;
30068;SDS011;16894;49.456;10.644;2022-12-28T12:44:04;12.02;;;7.75;;
30068;SDS011;16894;49.456;10.644;2022-12-28T12:49:34;11.05;;;6.20;;
30068;SDS011;16894;49.456;10.644;2022-12-28T13:03:35;37.58;;;22.15;;
30068;SDS011;16894;49.456;10.644;2022-12-28T13:06:03;19.65;;;13.35;;
30068;SDS011;16894;49.456;10.644;2022-12-28T13:08:41;14.45;;;10.77;;
30068;SDS011;16894;49.456;10.644;2022-12-28T13:11:18;19.05;;;11.20;;
30068;SDS011;16894;49.456;10.644;2022-12-28T13:16:18;9.32;;;4.65;;
30068;SDS011;16894;49.456;10.644;2022-12-28T13:21:21;20.17;;;11.48;;
30068;SDS011;16894;49.456;10.644;2022-12-28T13:23:48;12.73;;;8.35;;
30068;SDS011;16894;49.456;10.644;2022-12-28T13:26:14;14.13;;;7.82;;
30068;SDS011;16894;49.456;10.644;2022-12-28T13:31:20;14.48;;;10.55;;
30068;SDS011;16894;49.456;10.644;2022-12-28T13:33:54;25.85;;;13.68;;
30068;SDS011;16894;49.456;10.644;2022-12-28T13:36:20;9.35;;;5.68;;
30068;SDS011;16894;49.456;10.644;2022-12-28T13:38:45;17.63;;;9.13;;
30068;SDS011;16894;49.456;10.644;2022-12-28T13:41:21;17.53;;;12.63;;
30068;SDS011;16894;49.456;10.644;2022-12-28T13:43:56;11.00;;;8.13;;
30068;SDS011;16894;49.456;10.644;2022-12-28T13:46:45;8.10;;;6.30;;
30068;SDS011;16894;49.456;10.644;2022-12-28T13:49:14;12.73;;;8.90;;
30068;SDS011;16894;49.456;10.644;2022-12-28T13:51:41;15.23;;;8.82;;
30068;SDS011;16894;49.456;10.644;2022-12-28T13:54:07;10.68;;;6.05;;
30068;SDS011;16894;49.456;10.644;2022-12-28T13:56:35;9.93;;;7.13;;
30068;SDS011;16894;49.456;10.644;2022-12-28T13:59:07;9.13;;;8.32;;
30068;SDS011;16894;49.456;10.644;2022-12-28T14:01:38;10.27;;;8.38;;
30068;SDS011;16894;49.456;10.644;2022-12-28T14:04:08;7.78;;;7.00;;
30068;SDS011;16894;49.456;10.644;2022-12-28T14:06:40;10.27;;;6.88;;
30068;SDS011;16894;49.456;10.644;2022-12-28T14:09:08;8.55;;;4.53;;
30068;SDS011;16894;49.456;10.644;2022-12-28T14:11:36;9.98;;;4.70;;
30068;SDS011;16894;49.456;10.644;2022-12-28T14:14:03;7.78;;;5.00;;
30068;SDS011;16894;49.456;10.644;2022-12-28T14:16:30;6.00;;;4.63;;
30068;SDS011;16894;49.456;10.644;2022-12-28T14:18:56;5.35;;;3.92;;
30068;SDS011;16894;49.456;10.644;2022-12-28T14:21:31;7.00;;;4.30;;
30068;SDS011;16894;49.456;10.644;2022-12-28T14:24:08;5.85;;;3.95;;
30068;SDS011;16894;49.456;10.644;2022-12-28T14:26:35;5.80;;;3.92;;
30068;SDS011;16894;49.456;10.644;2022-12-28T14:29:08;4.72;;;3.85;;
30068;SDS011;16894;49.456;10.644;2022-12-28T14:31:37;8.77;;;4.70;;
30068;SDS011;16894;49.456;10.644;2022-12-28T14:34:04;7.00;;;2.97;;
30068;SDS011;16894;49.456;10.644;2022-12-28T14:38:58;15.93;;;5.50;;
30068;SDS011;16894;49.456;10.644;2022-12-28T14:41:29;6.20;;;4.25;;
30068;SDS011;16894;49.456;10.644;2022-12-28T14:43:59;10.48;;;5.30;;
30068;SDS011;16894;49.456;10.644;2022-12-28T14:46:29;8.93;;;4.68;;
30068;SDS011;16894;49.456;10.644;2022-12-28T14:48:58;9.73;;;4.85;;
30068;SDS011;16894;49.456;10.644;2022-12-28T14:51:30;12.20;;;6.28;;
30068;SDS011;16894;49.456;10.644;2022-12-28T14:56:41;13.20;;;6.70;;
30068;SDS011;16894;49.456;10.644;2022-12-28T15:01:43;9.65;;;3.92;;
30068;SDS011;16894;49.456;10.644;2022-12-28T15:04:32;7.47;;;3.35;;
30068;SDS011;16894;49.456;10.644;2022-12-28T15:07:11;9.70;;;3.30;;
30068;SDS011;16894;49.456;10.644;2022-12-28T15:09:37;8.20;;;4.25;;
30068;SDS011;16894;49.456;10.644;2022-12-28T15:12:12;13.57;;;5.03;;
30068;SDS011;16894;49.456;10.644;2022-12-28T15:14:47;10.45;;;5.30;;
30068;SDS011;16894;49.456;10.644;2022-12-28T15:17:13;11.18;;;5.05;;
30068;SDS011;16894;49.456;10.644;2022-12-28T15:22:06;9.80;;;4.80;;
30068;SDS011;16894;49.456;10.644;2022-12-28T15:24:31;13.13;;;5.73;;
30068;SDS011;16894;49.456;10.644;2022-12-28T15:26:58;11.15;;;5.95;;
30068;SDS011;16894;49.456;10.644;2022-12-28T15:29:23;9.97;;;6.40;;
30068;SDS011;16894;49.456;10.644;2022-12-28T15:31:49;9.87;;;5.93;;
30068;SDS011;16894;49.456;10.644;2022-12-28T15:34:15;10.70;;;6.20;;
30068;SDS011;16894;49.456;10.644;2022-12-28T15:36:40;8.40;;;5.35;;
30068;SDS011;16894;49.456;10.644;2022-12-28T15:39:10;8.05;;;5.63;;
30068;SDS011;16894;49.456;10.644;2022-12-28T15:41:37;7.45;;;5.68;;
30068;SDS011;16894;49.456;10.644;2022-12-28T15:44:15;9.00;;;5.78;;
30068;SDS011;16894;49.456;10.644;2022-12-28T15:46:43;11.88;;;6.03;;
30068;SDS011;16894;49.456;10.644;2022-12-28T15:49:10;11.55;;;5.13;;
30068;SDS011;16894;49.456;10.644;2022-12-28T15:51:37;9.68;;;5.25;;
30068;SDS011;16894;49.456;10.644;2022-12-28T15:54:03;8.75;;;5.53;;
30068;SDS011;16894;49.456;10.644;2022-12-28T15:56:33;27.17;;;13.65;;
30068;SDS011;16894;49.456;10.644;2022-12-28T15:59:01;15.60;;;9.98;;
30068;SDS011;16894;49.456;10.644;2022-12-28T16:01:28;12.98;;;6.22;;
30068;SDS011;16894;49.456;10.644;2022-12-28T16:03:56;7.30;;;5.45;;
30068;SDS011;16894;49.456;10.644;2022-12-28T16:06:23;7.10;;;5.53;;
30068;SDS011;16894;49.456;10.644;2022-12-28T16:08:57;9.00;;;5.55;;
30068;SDS011;16894;49.456;10.644;2022-12-28T16:11:24;9.07;;;6.50;;
30068;SDS011;16894;49.456;10.644;2022-12-28T16:13:54;10.00;;;5.65;;
30068;SDS011;16894;49.456;10.644;2022-12-28T16:16:21;9.95;;;6.22;;
30068;SDS011;16894;49.456;10.644;2022-12-28T16:18:48;7.22;;;5.43;;
30068;SDS011;16894;49.456;10.644;2022-12-28T16:21:14;6.65;;;5.43;;
30068;SDS011;16894;49.456;10.644;2022-12-28T16:23:42;12.50;;;5.57;;
30068;SDS011;16894;49.456;10.644;2022-12-28T16:26:08;10.38;;;6.07;;
30068;SDS011;16894;49.456;10.644;2022-12-28T16:28:35;9.93;;;5.78;;
30068;SDS011;16894;49.456;10.644;2022-12-28T16:31:02;10.45;;;6.57;;
30068;SDS011;16894;49.456;10.644;2022-12-28T16:33:28;8.50;;;7.70;;
30068;SDS011;16894;49.456;10.644;2022-12-28T16:35:54;8.87;;;6.00;;
30068;SDS011;16894;49.456;10.644;2022-12-28T16:38:20;7.22;;;6.47;;
30068;SDS011;16894;49.456;10.644;2022-12-28T16:40:47;7.93;;;5.45;;
30068;SDS011;16894;49.456;10.644;2022-12-28T16:43:14;8.63;;;5.78;;
30068;SDS011;16894;49.456;10.644;2022-12-28T16:45:41;8.60;;;5.65;;
30068;SDS011;16894;49.456;10.644;2022-12-28T16:48:12;8.82;;;5.32;;